createdAt,value
2024-05-09T00:01:09.905Z,14.30
2024-05-09T00:03:39.759Z,14.40
2024-05-09T00:06:10.320Z,14.50
2024-05-09T00:08:39.888Z,14.50
2024-05-09T00:11:09.541Z,14.60
2024-05-09T00:13:39.433Z,14.70
2024-05-09T00:16:09.689Z,14.80
2024-05-09T00:18:39.323Z,14.90
2024-05-09T00:21:09.873Z,15.00
2024-05-09T00:23:39.470Z,15.10
2024-05-09T00:26:09.156Z,15.20
2024-05-09T00:28:38.725Z,15.20
2024-05-09T00:31:08.695Z,15.30
2024-05-09T00:33:38.507Z,15.30
2024-05-09T00:36:09.296Z,15.40
2024-05-09T00:38:38.928Z,15.40
2024-05-09T00:41:08.538Z,15.40
2024-05-09T00:43:38.158Z,15.40
2024-05-09T00:46:07.830Z,15.40
2024-05-09T00:48:37.583Z,15.40
2024-05-09T00:51:07.926Z,15.40
2024-05-09T00:53:37.652Z,15.40
2024-05-09T01:45:28.229Z,14.90
2024-05-09T01:47:58.508Z,14.90
2024-05-09T01:50:37.660Z,14.70
2024-05-09T01:53:11.616Z,14.60
2024-05-09T01:55:41.456Z,14.60
2024-05-09T01:58:11.084Z,14.70
2024-05-09T02:00:43.132Z,14.50
2024-05-09T02:03:16.735Z,14.40
2024-05-09T02:05:48.397Z,14.40
2024-05-09T02:08:19.432Z,14.40
2024-05-09T02:10:50.747Z,14.40
2024-05-09T02:13:20.579Z,14.40
2024-05-09T02:15:53.840Z,14.40
2024-05-09T02:18:23.559Z,14.40
2024-05-09T02:20:53.270Z,14.50
2024-05-09T02:23:22.853Z,14.50
2024-05-09T02:25:52.872Z,14.50
2024-05-09T02:28:25.649Z,14.50
2024-05-09T02:30:55.149Z,14.50
2024-05-09T02:33:24.891Z,14.40
2024-05-09T02:35:54.540Z,14.50
2024-05-09T02:38:24.122Z,14.50
2024-05-09T02:40:53.743Z,14.50
2024-05-09T02:49:25.449Z,14.80
2024-05-09T02:51:55.049Z,14.80
2024-05-09T02:54:24.605Z,15.00
2024-05-09T02:56:54.139Z,15.10
2024-05-09T02:59:23.781Z,15.20
2024-05-09T03:01:53.701Z,15.30
2024-05-09T03:04:23.413Z,15.30
2024-05-09T03:06:53.377Z,15.40
2024-05-09T03:09:23.320Z,15.40
2024-05-09T03:11:52.978Z,15.40
2024-05-09T03:14:22.731Z,15.40
2024-05-09T03:16:52.364Z,15.40
2024-05-09T03:19:22.191Z,15.50
2024-05-09T03:21:51.875Z,15.50
2024-05-09T03:24:21.403Z,15.50
2024-05-09T03:26:50.937Z,15.50
2024-05-09T03:29:20.566Z,15.50
2024-05-09T03:31:50.192Z,15.50
2024-05-09T03:34:19.874Z,15.40
2024-05-09T03:36:49.445Z,15.40
2024-05-09T03:39:18.978Z,15.40
2024-05-09T03:41:48.487Z,15.40
2024-05-09T03:44:18.111Z,15.50
2024-05-09T03:46:47.734Z,15.50
2024-05-09T03:49:18.267Z,15.60
2024-05-09T03:51:48.503Z,15.70
2024-05-09T03:54:18.032Z,15.70
2024-05-09T03:56:47.583Z,15.70
2024-05-09T03:59:17.175Z,15.70
2024-05-09T04:01:47.196Z,15.70
2024-05-09T04:04:16.834Z,15.80
2024-05-09T04:06:46.393Z,15.70
2024-05-09T04:09:16.355Z,15.80
2024-05-09T04:11:46.022Z,15.70
2024-05-09T04:14:15.687Z,15.70
2024-05-09T04:16:45.288Z,15.70
2024-05-09T04:19:15.157Z,15.80
2024-05-09T04:21:44.857Z,15.80
2024-05-09T04:24:14.380Z,15.80
2024-05-09T04:26:44.377Z,15.80
2024-05-09T04:29:14.432Z,15.80
2024-05-09T04:31:44.521Z,15.90
2024-05-09T04:34:14.412Z,16.10
2024-05-09T06:07:22.246Z,15.70
2024-05-09T06:09:51.949Z,15.60
2024-05-09T06:12:21.622Z,15.60
2024-05-09T06:14:51.219Z,15.50
2024-05-09T06:17:20.875Z,15.50
2024-05-09T06:19:50.639Z,15.50
2024-05-09T06:22:20.364Z,15.40
2024-05-09T06:24:49.869Z,15.40
2024-05-09T06:27:19.510Z,15.40
2024-05-09T06:29:49.119Z,15.30
2024-05-09T06:32:18.783Z,15.30
2024-05-09T06:34:48.961Z,15.30
2024-05-09T06:37:18.535Z,15.20
2024-05-09T06:39:48.259Z,15.20
2024-05-09T06:42:17.751Z,15.20
2024-05-09T06:44:47.311Z,15.10
2024-05-09T06:47:16.939Z,15.10
2024-05-09T06:49:46.656Z,15.10
2024-05-09T06:52:16.257Z,15.00
2024-05-09T06:54:45.778Z,15.00
2024-05-09T06:57:15.608Z,15.00
2024-05-09T06:59:45.281Z,14.90
2024-05-09T07:02:15.386Z,14.90
2024-05-09T07:34:41.621Z,14.50
2024-05-09T07:37:14.881Z,14.50
2024-05-09T07:39:44.658Z,14.50
2024-05-09T07:42:14.184Z,14.40
2024-05-09T07:44:43.752Z,14.40
2024-05-09T07:48:27.717Z,14.40
2024-05-09T07:51:54.805Z,14.40
2024-05-09T07:53:35.527Z,14.30
2024-05-09T07:55:43.381Z,14.30
2024-05-09T07:58:13.131Z,14.30
2024-05-09T08:00:43.004Z,14.30
2024-05-09T08:03:12.718Z,14.20
2024-05-09T08:05:42.563Z,14.20
2024-05-09T08:08:13.020Z,14.20
2024-05-09T08:10:42.684Z,14.20
2024-05-09T08:13:12.483Z,14.20
2024-05-09T08:15:42.419Z,14.20
2024-05-09T08:18:12.582Z,14.20
2024-05-09T08:20:43.161Z,14.20
2024-05-09T08:23:15.540Z,14.20
2024-05-09T08:25:45.435Z,14.10
2024-05-09T08:28:15.251Z,14.10
2024-05-09T08:30:45.728Z,14.20
2024-05-09T08:33:15.801Z,14.10
2024-05-09T09:19:13.239Z,13.80
2024-05-09T09:21:44.225Z,13.80
2024-05-09T09:24:14.775Z,13.80
2024-05-09T09:26:46.850Z,13.70
2024-05-09T09:29:20.594Z,13.70
2024-05-09T09:31:59.695Z,13.70
2024-05-09T09:34:30.401Z,13.60
2024-05-09T09:37:01.082Z,13.60
2024-05-09T09:39:33.176Z,13.60
2024-05-09T09:42:04.427Z,13.60
2024-05-09T09:44:37.334Z,13.50
2024-05-09T09:47:10.809Z,13.50
2024-05-09T09:49:40.564Z,13.50
2024-05-09T09:52:11.310Z,13.50
2024-05-09T09:54:43.172Z,13.40
2024-05-09T09:57:13.954Z,13.50
2024-05-09T09:59:48.079Z,13.50
2024-05-09T10:02:20.436Z,13.50
2024-05-09T10:04:50.221Z,13.40
2024-05-09T10:07:23.908Z,13.40
2024-05-09T10:09:56.982Z,13.40
2024-05-09T10:12:26.846Z,13.40
2024-05-09T10:14:56.592Z,13.30
2024-05-09T10:17:26.326Z,13.40
2024-05-09T10:26:16.714Z,13.40
2024-05-09T10:28:46.651Z,13.40
2024-05-09T10:31:17.454Z,13.40
2024-05-09T10:33:53.971Z,13.40
2024-05-09T10:36:27.634Z,13.40
2024-05-09T10:38:57.501Z,13.40
2024-05-09T10:41:27.098Z,13.40
2024-05-09T10:43:56.890Z,13.40
2024-05-09T10:46:26.613Z,13.40
2024-05-09T10:48:56.815Z,13.40
2024-05-09T10:51:27.358Z,13.30
2024-05-09T10:53:58.671Z,13.30
2024-05-09T10:56:28.697Z,13.30
2024-05-09T10:58:58.287Z,13.30
2024-05-09T11:01:28.780Z,13.30
2024-05-09T11:03:59.144Z,13.30
2024-05-09T11:06:28.980Z,13.30
2024-05-09T11:08:59.176Z,13.20
2024-05-09T11:11:29.399Z,13.20
2024-05-09T11:13:59.152Z,13.20
2024-05-09T11:16:29.386Z,13.20
2024-05-09T11:18:59.975Z,13.20
2024-05-09T11:21:30.255Z,13.10
2024-05-09T11:24:00.715Z,13.10
2024-05-09T11:57:54.414Z,12.80
2024-05-09T12:00:33.204Z,12.70
2024-05-09T12:03:06.551Z,12.70
2024-05-09T12:05:36.376Z,12.60
2024-05-09T12:08:06.161Z,12.50
2024-05-09T12:10:36.822Z,12.50
2024-05-09T12:13:07.861Z,12.40
2024-05-09T12:15:39.222Z,12.40
2024-05-09T12:18:09.362Z,12.30
2024-05-09T12:20:40.243Z,12.30
2024-05-09T12:23:11.061Z,12.30
2024-05-09T12:25:41.174Z,12.20
2024-05-09T12:28:11.287Z,12.20
2024-05-09T12:30:41.566Z,12.20
2024-05-09T12:33:20.864Z,12.10
2024-05-09T12:35:52.934Z,12.10
2024-05-09T12:38:22.556Z,12.10
2024-05-09T12:40:52.506Z,12.10
2024-05-09T12:43:22.647Z,12.00
2024-05-09T12:45:52.704Z,12.00
2024-05-09T12:48:22.509Z,12.00
2024-05-09T12:50:53.565Z,11.90
2024-05-09T12:53:26.995Z,11.90
2024-05-09T12:56:00.222Z,11.90
2024-05-09T14:22:33.425Z,12.10
2024-05-09T14:25:03.185Z,12.10
2024-05-09T14:27:34.073Z,12.10
2024-05-09T14:30:05.646Z,12.10
2024-05-09T14:32:37.083Z,12.10
2024-05-09T14:35:06.943Z,12.10
2024-05-09T14:37:38.603Z,12.20
2024-05-09T14:40:17.869Z,12.20
2024-05-09T14:42:57.402Z,12.20
2024-05-09T14:45:28.175Z,12.20
2024-05-09T14:47:57.840Z,12.20
2024-05-09T14:50:34.990Z,12.20
2024-05-09T14:53:08.570Z,12.20
2024-05-09T14:55:39.565Z,12.20
2024-05-09T14:58:11.536Z,12.20
2024-05-09T15:00:48.525Z,12.30
2024-05-09T15:03:23.635Z,12.30
2024-05-09T15:05:53.517Z,12.30
2024-05-09T15:08:23.329Z,12.30
2024-05-09T15:10:53.332Z,12.30
2024-05-09T15:13:23.077Z,12.30
2024-05-09T15:15:52.966Z,12.30
2024-05-09T15:18:23.018Z,12.40
2024-05-09T15:20:52.952Z,12.30
2024-05-09T15:52:52.880Z,12.50
2024-05-09T15:55:22.675Z,12.50
2024-05-09T15:57:52.272Z,12.50
2024-05-09T16:00:29.052Z,12.50
2024-05-09T16:03:06.293Z,12.50
2024-05-09T16:05:36.318Z,12.50
2024-05-09T16:08:06.652Z,12.50
2024-05-09T16:10:37.651Z,12.50
2024-05-09T16:13:08.340Z,12.50
2024-05-09T16:15:38.408Z,12.50
2024-05-09T16:18:08.565Z,12.50
2024-05-09T16:20:41.270Z,12.50
2024-05-09T16:23:13.088Z,12.50
2024-05-09T16:25:48.445Z,12.50
2024-05-09T16:28:18.804Z,12.50
2024-05-09T16:30:48.574Z,12.50
2024-05-09T16:33:22.409Z,12.50
2024-05-09T16:35:52.289Z,12.50
2024-05-09T16:38:22.306Z,12.60
2024-05-09T16:40:52.157Z,12.60
2024-05-09T16:43:21.888Z,12.60
2024-05-09T16:45:51.525Z,12.50
2024-05-09T16:48:21.255Z,12.60
2024-05-09T16:50:51.531Z,12.60
2024-05-09T17:47:30.268Z,12.40
2024-05-09T17:49:59.952Z,12.50
2024-05-09T17:52:29.597Z,12.40
2024-05-09T17:54:59.286Z,12.50
2024-05-09T17:57:28.910Z,12.50
2024-05-09T17:59:58.428Z,12.50
2024-05-09T18:02:28.738Z,12.50
2024-05-09T18:04:58.582Z,12.50
2024-05-09T18:07:28.238Z,12.50
2024-05-09T18:09:57.865Z,12.50
2024-05-09T18:12:27.439Z,12.50
2024-05-09T18:14:56.965Z,12.50
2024-05-09T18:17:26.653Z,12.50
2024-05-09T18:19:56.308Z,12.50
2024-05-09T18:22:25.844Z,12.50
2024-05-09T18:24:55.437Z,12.50
2024-05-09T18:27:25.170Z,12.50
2024-05-09T18:29:54.704Z,12.50
2024-05-09T18:32:24.883Z,12.50
2024-05-09T18:34:54.474Z,12.50
2024-05-09T18:37:24.282Z,12.50
2024-05-09T18:39:53.977Z,12.50
2024-05-09T18:42:23.666Z,12.50
2024-05-09T18:44:53.200Z,12.50
2024-05-09T18:54:15.217Z,12.50
2024-05-09T18:56:45.234Z,12.50
2024-05-09T18:59:14.780Z,12.50
2024-05-09T19:01:44.442Z,12.50
2024-05-09T19:04:14.331Z,12.50
2024-05-09T19:06:44.185Z,12.50
2024-05-09T19:09:13.754Z,12.50
2024-05-09T19:11:43.305Z,12.40
2024-05-09T19:14:13.314Z,12.40
2024-05-09T19:16:43.599Z,12.40
2024-05-09T19:19:13.377Z,12.40
2024-05-09T19:21:43.255Z,12.40
2024-05-09T19:24:12.814Z,12.40
2024-05-09T19:26:42.546Z,12.40
2024-05-09T19:29:12.049Z,12.40
2024-05-09T19:31:41.571Z,12.40
2024-05-09T19:34:11.168Z,12.40
2024-05-09T19:36:40.810Z,12.40
2024-05-09T19:39:10.519Z,12.40
2024-05-09T19:41:40.463Z,12.40
2024-05-09T19:44:10.034Z,12.30
2024-05-09T19:46:40.293Z,12.30
2024-05-09T19:49:10.043Z,12.30
2024-05-09T19:51:39.668Z,12.30
2024-05-09T22:27:13.644Z,12.80
2024-05-09T22:29:43.173Z,12.80
2024-05-09T22:32:12.721Z,12.80
2024-05-09T22:34:42.329Z,12.90
2024-05-09T22:37:12.022Z,12.90
2024-05-09T22:39:42.025Z,12.90
2024-05-09T22:42:11.677Z,12.90
2024-05-09T22:44:41.589Z,13.00
2024-05-09T22:47:11.190Z,12.90
2024-05-09T22:49:40.813Z,13.00
2024-05-09T22:52:10.510Z,13.00
2024-05-09T22:54:40.073Z,13.00
2024-05-09T22:57:09.638Z,13.10
2024-05-09T22:59:39.216Z,13.10
2024-05-09T23:02:08.871Z,13.20
2024-05-09T23:04:40.202Z,13.20
2024-05-09T23:07:09.763Z,13.20
2024-05-09T23:09:39.433Z,13.30
2024-05-09T23:12:09.212Z,13.30
2024-05-09T23:14:38.795Z,13.30
2024-05-09T23:17:08.508Z,13.30
2024-05-09T23:19:38.168Z,13.30
2024-05-09T23:22:07.808Z,13.30
2024-05-09T23:24:37.466Z,13.30
2024-05-09T23:27:07.240Z,13.30
2024-05-09T23:29:36.943Z,13.40
2024-05-09T23:32:06.664Z,13.40
2024-05-09T23:34:36.249Z,13.40
2024-05-09T23:37:05.914Z,13.40
2024-05-09T23:39:35.576Z,13.50
2024-05-09T23:42:05.497Z,13.50
2024-05-09T23:44:35.010Z,13.50
2024-05-09T23:47:05.767Z,13.60
2024-05-09T23:49:36.411Z,13.60
2024-05-09T23:52:06.483Z,13.70
2024-05-09T23:54:36.078Z,13.70
2024-05-09T23:57:05.752Z,13.70
2024-05-09T23:59:35.307Z,13.80
